Wichita Mid Continent Airport
KICT : now visible

Airfield :











YOU CAN JOIN US ON...

 
LOGIN :

Register | Disclaimer

   EN    FR    IT 

 









Legend :    VFR   Marginal VFR   IFR   Intensive IFR   Very Intensive IFR
Visi :
Ceiling :
>= 8 km
>= 3000ft
5 to 8 km
1000 to 3000 ft
1500m to 5 km
500 to 1000 ft
800 to 1500m
200 to 500 ft
< 800m
< 200 ft
Symbols :   Thunderstorms  Fog  Heavy snow  Heavy precipitations  Wind > 20 kt






- Airport Elevation : 1333 ft
- IATA code : ICT


KICT - Wichita Mid Continent

CURRENT METAR :
  • 042253Z 13010KT 10SM FEW075 BKN120 BKN220 27/12 A3006 RMK AO2 SLP169 T02670122

EXPIRED METARs :
  • 042153Z 12010KT 10SM BKN075 BKN130 BKN220 27/12 A3007 RMK AO2 SLP172 T02670122
  • 042053Z 15009KT 10SM OVC075 27/12 A3010 RMK AO2 SLP180 T02670117 58013

TAF KICT
Valid from the 04 at 18:00 until the 05 at 18:00 UTC


041728Z 0418/0518 11006KT P6SM SCT080
FM050900 11006KT P6SM VCTS BKN060CB
FM051200 15007KT P6SM BKN060
KZKC FIR / North America



MET'MAP, your aeronautical weather chart ! - Copyright ORBIFLY December 2007 - Disclaimer

ORBIFLY MET'MAP TEAM :

Programming & Development : Alexandra Zaïnal
Concept & original design : Baudouin d'Aumeries
Assistance for programming : Marc-Olivier Méhu
Technical & hardware support : Manuel Goepfert

Contact : metmap@orbifly.com




SOURCES & CREDITS :

   NOAA       Earth
Advisory